<?xml version="1.0" encoding="UTF-8" standalone="no" ?>
<gpx xmlns="http://www.topografix.com/GPX/1/1" xmlns:xsi="http://www.w3.org/2001/XMLSchema-instance" xsi:schemaLocation="http://www.topografix.com/GPX/1/1 http://www.topografix.com/GPX/1/1/gpx.xsd" version="1.1" creator="VisuGPX - https://www.visugpx.com">
  <metadata>
    <name>Etape en Corse </name>
    <desc><![CDATA[Etape 4 Plage O gradelle-Scandola
Etape 5 Carges- Sagone
Etape 6 Baie de Liscia]]></desc>
  </metadata>
  <wpt lat="43.22555" lon="6.44935">
    <ele>54</ele>
    <name><![CDATA[parking]]></name>
    <desc><![CDATA[16-MAI-15 9:26:59]]></desc>
    <cmt><![CDATA[16-MAI-15 9:26:59]]></cmt>
    <type><![CDATA[user]]></type>
  </wpt>
  <wpt lat="43.23505" lon="6.4006">
    <ele>423</ele>
    <name><![CDATA[parking02]]></name>
    <desc><![CDATA[16-MAI-15 12:19:33]]></desc>
    <cmt><![CDATA[16-MAI-15 12:19:33]]></cmt>
    <type><![CDATA[user]]></type>
  </wpt>
  <wpt lat="43.21304" lon="6.4631">
    <ele>42</ele>
    <name><![CDATA[piste]]></name>
    <desc><![CDATA[Chemin]]></desc>
    <cmt><![CDATA[Chemin]]></cmt>
    <type><![CDATA[user]]></type>
  </wpt>
  <trk>
    <name><![CDATA[Tracé 005]]></name>
    <trkseg>
      <trkpt lat="42.13217" lon="8.59779">
        <ele>-37.35</ele>
        <time>2017-06-05T07:05:28Z</time>
      </trkpt>
      <trkpt lat="42.13212" lon="8.59785">
        <ele>-37.05</ele>
        <time>2017-06-05T07:05:48Z</time>
      </trkpt>
      <trkpt lat="42.13213" lon="8.59785">
        <ele>-18.13</ele>
        <time>2017-06-05T07:05:54Z</time>
      </trkpt>
      <trkpt lat="42.13213" lon="8.59785">
        <ele>-18.39</ele>
        <time>2017-06-05T07:06:22Z</time>
      </trkpt>
      <trkpt lat="42.13206" lon="8.59797">
        <ele>-18.93</ele>
        <time>2017-06-05T07:06:41Z</time>
      </trkpt>
      <trkpt lat="42.13199" lon="8.59794">
        <ele>-18.27</ele>
        <time>2017-06-05T07:07:04Z</time>
      </trkpt>
      <trkpt lat="42.13194" lon="8.59798">
        <ele>-18.9</ele>
        <time>2017-06-05T07:07:27Z</time>
      </trkpt>
      <trkpt lat="42.13186" lon="8.59813">
        <ele>-18.62</ele>
        <time>2017-06-05T07:07:48Z</time>
      </trkpt>
      <trkpt lat="42.13185" lon="8.59845">
        <ele>-18.34</ele>
        <time>2017-06-05T07:08:04Z</time>
      </trkpt>
      <trkpt lat="42.13188" lon="8.59877">
        <ele>-18.16</ele>
        <time>2017-06-05T07:08:17Z</time>
      </trkpt>
      <trkpt lat="42.1319" lon="8.5992">
        <ele>-17.88</ele>
        <time>2017-06-05T07:08:34Z</time>
      </trkpt>
      <trkpt lat="42.13195" lon="8.59955">
        <ele>-17.71</ele>
        <time>2017-06-05T07:08:47Z</time>
      </trkpt>
      <trkpt lat="42.132" lon="8.60002">
        <ele>-17.26</ele>
        <time>2017-06-05T07:09:05Z</time>
      </trkpt>
      <trkpt lat="42.13204" lon="8.60051">
        <ele>-17.1</ele>
        <time>2017-06-05T07:09:23Z</time>
      </trkpt>
      <trkpt lat="42.13201" lon="8.60099">
        <ele>-16.52</ele>
        <time>2017-06-05T07:09:42Z</time>
      </trkpt>
      <trkpt lat="42.13182" lon="8.60112">
        <ele>-16.24</ele>
        <time>2017-06-05T07:09:59Z</time>
      </trkpt>
      <trkpt lat="42.1315" lon="8.60093">
        <ele>-15.97</ele>
        <time>2017-06-05T07:10:18Z</time>
      </trkpt>
      <trkpt lat="42.13123" lon="8.60073">
        <ele>-15.65</ele>
        <time>2017-06-05T07:10:37Z</time>
      </trkpt>
      <trkpt lat="42.13122" lon="8.60064">
        <ele>-15.32</ele>
        <time>2017-06-05T07:11:08Z</time>
      </trkpt>
      <trkpt lat="42.13121" lon="8.60059">
        <ele>-15.14</ele>
        <time>2017-06-05T07:11:13Z</time>
      </trkpt>
      <trkpt lat="42.13121" lon="8.60056">
        <ele>-15.1</ele>
        <time>2017-06-05T07:11:15Z</time>
      </trkpt>
      <trkpt lat="42.13109" lon="8.60049">
        <ele>-15.09</ele>
        <time>2017-06-05T07:11:25Z</time>
      </trkpt>
      <trkpt lat="42.13093" lon="8.60072">
        <ele>-15.17</ele>
        <time>2017-06-05T07:11:42Z</time>
      </trkpt>
      <trkpt lat="42.13102" lon="8.60121">
        <ele>-15.23</ele>
        <time>2017-06-05T07:12:01Z</time>
      </trkpt>
      <trkpt lat="42.13112" lon="8.60167">
        <ele>-15.07</ele>
        <time>2017-06-05T07:12:18Z</time>
      </trkpt>
      <trkpt lat="42.13105" lon="8.60219">
        <ele>-14.78</ele>
        <time>2017-06-05T07:12:37Z</time>
      </trkpt>
      <trkpt lat="42.1308" lon="8.60242">
        <ele>-14.59</ele>
        <time>2017-06-05T07:12:53Z</time>
      </trkpt>
      <trkpt lat="42.13047" lon="8.60254">
        <ele>-14.28</ele>
        <time>2017-06-05T07:13:11Z</time>
      </trkpt>
      <trkpt lat="42.13022" lon="8.60279">
        <ele>-14.27</ele>
        <time>2017-06-05T07:13:27Z</time>
      </trkpt>
      <trkpt lat="42.13005" lon="8.60319">
        <ele>-13.82</ele>
        <time>2017-06-05T07:13:45Z</time>
      </trkpt>
      <trkpt lat="42.13006" lon="8.60348">
        <ele>-13.8</ele>
        <time>2017-06-05T07:13:59Z</time>
      </trkpt>
      <trkpt lat="42.13026" lon="8.60368">
        <ele>-13.49</ele>
        <time>2017-06-05T07:14:14Z</time>
      </trkpt>
      <trkpt lat="42.13059" lon="8.60382">
        <ele>-13.58</ele>
        <time>2017-06-05T07:14:30Z</time>
      </trkpt>
      <trkpt lat="42.1309" lon="8.60394">
        <ele>-13.24</ele>
        <time>2017-06-05T07:14:44Z</time>
      </trkpt>
      <trkpt lat="42.13125" lon="8.60406">
        <ele>-13.02</ele>
        <time>2017-06-05T07:15:01Z</time>
      </trkpt>
      <trkpt lat="42.13155" lon="8.60435">
        <ele>-13.1</ele>
        <time>2017-06-05T07:15:18Z</time>
      </trkpt>
      <trkpt lat="42.13186" lon="8.60473">
        <ele>-12.96</ele>
        <time>2017-06-05T07:15:37Z</time>
      </trkpt>
      <trkpt lat="42.13207" lon="8.60514">
        <ele>-12.93</ele>
        <time>2017-06-05T07:15:54Z</time>
      </trkpt>
      <trkpt lat="42.13225" lon="8.60549">
        <ele>-12.81</ele>
        <time>2017-06-05T07:16:11Z</time>
      </trkpt>
      <trkpt lat="42.13245" lon="8.606">
        <ele>-12.4</ele>
        <time>2017-06-05T07:16:32Z</time>
      </trkpt>
      <trkpt lat="42.13246" lon="8.60646">
        <ele>-12.17</ele>
        <time>2017-06-05T07:16:48Z</time>
      </trkpt>
      <trkpt lat="42.13259" lon="8.60676">
        <ele>-11.85</ele>
        <time>2017-06-05T07:17:01Z</time>
      </trkpt>
      <trkpt lat="42.13272" lon="8.60712">
        <ele>-11.71</ele>
        <time>2017-06-05T07:17:16Z</time>
      </trkpt>
      <trkpt lat="42.13291" lon="8.60748">
        <ele>-11.64</ele>
        <time>2017-06-05T07:17:33Z</time>
      </trkpt>
      <trkpt lat="42.13307" lon="8.60768">
        <ele>-11.41</ele>
        <time>2017-06-05T07:17:47Z</time>
      </trkpt>
      <trkpt lat="42.13329" lon="8.60808">
        <ele>-11.24</ele>
        <time>2017-06-05T07:18:07Z</time>
      </trkpt>
      <trkpt lat="42.13344" lon="8.60844">
        <ele>-11.19</ele>
        <time>2017-06-05T07:18:22Z</time>
      </trkpt>
      <trkpt lat="42.1336" lon="8.60881">
        <ele>-10.97</ele>
        <time>2017-06-05T07:18:42Z</time>
      </trkpt>
      <trkpt lat="42.1338" lon="8.60927">
        <ele>-10.94</ele>
        <time>2017-06-05T07:19:01Z</time>
      </trkpt>
      <trkpt lat="42.13398" lon="8.60975">
        <ele>-10.48</ele>
        <time>2017-06-05T07:19:19Z</time>
      </trkpt>
      <trkpt lat="42.13407" lon="8.61026">
        <ele>-10.07</ele>
        <time>2017-06-05T07:19:38Z</time>
      </trkpt>
      <trkpt lat="42.13412" lon="8.61057">
        <ele>-10.06</ele>
        <time>2017-06-05T07:19:53Z</time>
      </trkpt>
      <trkpt lat="42.13411" lon="8.61088">
        <ele>-9.98</ele>
        <time>2017-06-05T07:20:10Z</time>
      </trkpt>
      <trkpt lat="42.13409" lon="8.6113">
        <ele>-9.66</ele>
        <time>2017-06-05T07:20:25Z</time>
      </trkpt>
      <trkpt lat="42.13406" lon="8.61172">
        <ele>-9.75</ele>
        <time>2017-06-05T07:20:39Z</time>
      </trkpt>
      <trkpt lat="42.13395" lon="8.6122">
        <ele>-9.68</ele>
        <time>2017-06-05T07:20:56Z</time>
      </trkpt>
      <trkpt lat="42.1338" lon="8.61252">
        <ele>-9.37</ele>
        <time>2017-06-05T07:21:12Z</time>
      </trkpt>
      <trkpt lat="42.13372" lon="8.6128">
        <ele>-9.39</ele>
        <time>2017-06-05T07:21:27Z</time>
      </trkpt>
      <trkpt lat="42.13361" lon="8.61327">
        <ele>-9.34</ele>
        <time>2017-06-05T07:21:45Z</time>
      </trkpt>
      <trkpt lat="42.13345" lon="8.61373">
        <ele>-9.34</ele>
        <time>2017-06-05T07:22:02Z</time>
      </trkpt>
      <trkpt lat="42.13321" lon="8.61402">
        <ele>-9.34</ele>
        <time>2017-06-05T07:22:17Z</time>
      </trkpt>
      <trkpt lat="42.13309" lon="8.61436">
        <ele>-9.06</ele>
        <time>2017-06-05T07:22:31Z</time>
      </trkpt>
      <trkpt lat="42.13296" lon="8.61475">
        <ele>-9.13</ele>
        <time>2017-06-05T07:22:45Z</time>
      </trkpt>
      <trkpt lat="42.13278" lon="8.61517">
        <ele>-9.03</ele>
        <time>2017-06-05T07:23:00Z</time>
      </trkpt>
      <trkpt lat="42.13261" lon="8.61551">
        <ele>-8.93</ele>
        <time>2017-06-05T07:23:14Z</time>
      </trkpt>
      <trkpt lat="42.13241" lon="8.61578">
        <ele>-8.64</ele>
        <time>2017-06-05T07:23:27Z</time>
      </trkpt>
      <trkpt lat="42.13219" lon="8.61593">
        <ele>-8.72</ele>
        <time>2017-06-05T07:23:39Z</time>
      </trkpt>
      <trkpt lat="42.13194" lon="8.61598">
        <ele>-8.67</ele>
        <time>2017-06-05T07:23:51Z</time>
      </trkpt>
      <trkpt lat="42.1316" lon="8.61603">
        <ele>-8.83</ele>
        <time>2017-06-05T07:24:07Z</time>
      </trkpt>
      <trkpt lat="42.13133" lon="8.61621">
        <ele>-8.78</ele>
        <time>2017-06-05T07:24:22Z</time>
      </trkpt>
      <trkpt lat="42.131" lon="8.61648">
        <ele>-8.61</ele>
        <time>2017-06-05T07:24:40Z</time>
      </trkpt>
      <trkpt lat="42.13082" lon="8.61683">
        <ele>-8.56</ele>
        <time>2017-06-05T07:24:54Z</time>
      </trkpt>
      <trkpt lat="42.13061" lon="8.61711">
        <ele>-8.38</ele>
        <time>2017-06-05T07:25:07Z</time>
      </trkpt>
      <trkpt lat="42.13036" lon="8.61726">
        <ele>-8.45</ele>
        <time>2017-06-05T07:25:20Z</time>
      </trkpt>
      <trkpt lat="42.13008" lon="8.6174">
        <ele>-8.44</ele>
        <time>2017-06-05T07:25:35Z</time>
      </trkpt>
      <trkpt lat="42.12985" lon="8.61745">
        <ele>-8.38</ele>
        <time>2017-06-05T07:25:49Z</time>
      </trkpt>
      <trkpt lat="42.12963" lon="8.61745">
        <ele>-8.08</ele>
        <time>2017-06-05T07:26:04Z</time>
      </trkpt>
      <trkpt lat="42.12939" lon="8.61742">
        <ele>-8.1</ele>
        <time>2017-06-05T07:26:20Z</time>
      </trkpt>
      <trkpt lat="42.12911" lon="8.61739">
        <ele>-8.05</ele>
        <time>2017-06-05T07:26:36Z</time>
      </trkpt>
      <trkpt lat="42.12879" lon="8.61732">
        <ele>-8.35</ele>
        <time>2017-06-05T07:26:54Z</time>
      </trkpt>
      <trkpt lat="42.12844" lon="8.6173">
        <ele>-8.34</ele>
        <time>2017-06-05T07:27:12Z</time>
      </trkpt>
      <trkpt lat="42.12818" lon="8.61731">
        <ele>-7.93</ele>
        <time>2017-06-05T07:27:27Z</time>
      </trkpt>
      <trkpt lat="42.12781" lon="8.61742">
        <ele>-7.74</ele>
        <time>2017-06-05T07:27:46Z</time>
      </trkpt>
      <trkpt lat="42.12753" lon="8.61741">
        <ele>-7.43</ele>
        <time>2017-06-05T07:28:00Z</time>
      </trkpt>
      <trkpt lat="42.12719" lon="8.61742">
        <ele>-7.58</ele>
        <time>2017-06-05T07:28:16Z</time>
      </trkpt>
      <trkpt lat="42.12683" lon="8.61739">
        <ele>-7.79</ele>
        <time>2017-06-05T07:28:34Z</time>
      </trkpt>
      <trkpt lat="42.12655" lon="8.6174">
        <ele>-7.31</ele>
        <time>2017-06-05T07:28:49Z</time>
      </trkpt>
      <trkpt lat="42.1263" lon="8.6174">
        <ele>-7.27</ele>
        <time>2017-06-05T07:29:04Z</time>
      </trkpt>
      <trkpt lat="42.12603" lon="8.61758">
        <ele>-6.81</ele>
        <time>2017-06-05T07:29:21Z</time>
      </trkpt>
      <trkpt lat="42.12587" lon="8.61779">
        <ele>-6.86</ele>
        <time>2017-06-05T07:29:33Z</time>
      </trkpt>
      <trkpt lat="42.12567" lon="8.61803">
        <ele>-6.75</ele>
        <time>2017-06-05T07:29:49Z</time>
      </trkpt>
      <trkpt lat="42.12552" lon="8.6182">
        <ele>-6.8</ele>
        <time>2017-06-05T07:29:59Z</time>
      </trkpt>
      <trkpt lat="42.12541" lon="8.61842">
        <ele>-6.56</ele>
        <time>2017-06-05T07:30:12Z</time>
      </trkpt>
      <trkpt lat="42.12525" lon="8.61868">
        <ele>-6.19</ele>
        <time>2017-06-05T07:30:25Z</time>
      </trkpt>
      <trkpt lat="42.12507" lon="8.61895">
        <ele>-6.32</ele>
        <time>2017-06-05T07:30:38Z</time>
      </trkpt>
      <trkpt lat="42.12489" lon="8.61919">
        <ele>-6.29</ele>
        <time>2017-06-05T07:30:50Z</time>
      </trkpt>
      <trkpt lat="42.12474" lon="8.61943">
        <ele>-6.15</ele>
        <time>2017-06-05T07:31:02Z</time>
      </trkpt>
      <trkpt lat="42.1246" lon="8.61967">
        <ele>-5.88</ele>
        <time>2017-06-05T07:31:14Z</time>
      </trkpt>
      <trkpt lat="42.12445" lon="8.6199">
        <ele>-5.92</ele>
        <time>2017-06-05T07:31:27Z</time>
      </trkpt>
      <trkpt lat="42.12432" lon="8.62016">
        <ele>-5.71</ele>
        <time>2017-06-05T07:31:39Z</time>
      </trkpt>
      <trkpt lat="42.12417" lon="8.62046">
        <ele>-5.75</ele>
        <time>2017-06-05T07:31:53Z</time>
      </trkpt>
      <trkpt lat="42.12402" lon="8.62073">
        <ele>-5.57</ele>
        <time>2017-06-05T07:32:05Z</time>
      </trkpt>
      <trkpt lat="42.12387" lon="8.62098">
        <ele>-5.43</ele>
        <time>2017-06-05T07:32:18Z</time>
      </trkpt>
      <trkpt lat="42.12376" lon="8.62116">
        <ele>-5.58</ele>
        <time>2017-06-05T07:32:31Z</time>
      </trkpt>
      <trkpt lat="42.12362" lon="8.62143">
        <ele>-5.27</ele>
        <time>2017-06-05T07:32:45Z</time>
      </trkpt>
      <trkpt lat="42.12348" lon="8.62169">
        <ele>-5.26</ele>
        <time>2017-06-05T07:32:58Z</time>
      </trkpt>
      <trkpt lat="42.12332" lon="8.62197">
        <ele>-5.14</ele>
        <time>2017-06-05T07:33:11Z</time>
      </trkpt>
      <trkpt lat="42.12312" lon="8.62224">
        <ele>-5.17</ele>
        <time>2017-06-05T07:33:25Z</time>
      </trkpt>
      <trkpt lat="42.12302" lon="8.62251">
        <ele>-5.05</ele>
        <time>2017-06-05T07:33:38Z</time>
      </trkpt>
      <trkpt lat="42.12286" lon="8.62269">
        <ele>-4.99</ele>
        <time>2017-06-05T07:33:50Z</time>
      </trkpt>
      <trkpt lat="42.12264" lon="8.62284">
        <ele>-5.38</ele>
        <time>2017-06-05T07:34:05Z</time>
      </trkpt>
      <trkpt lat="42.12242" lon="8.62304">
        <ele>-4.81</ele>
        <time>2017-06-05T07:34:19Z</time>
      </trkpt>
      <trkpt lat="42.12231" lon="8.6231">
        <ele>-4.81</ele>
        <time>2017-06-05T07:34:26Z</time>
      </trkpt>
      <trkpt lat="42.12227" lon="8.62312">
        <ele>-4.85</ele>
        <time>2017-06-05T07:34:28Z</time>
      </trkpt>
      <trkpt lat="42.12216" lon="8.62312">
        <ele>-4.95</ele>
        <time>2017-06-05T07:34:34Z</time>
      </trkpt>
      <trkpt lat="42.12193" lon="8.62328">
        <ele>-4.6</ele>
        <time>2017-06-05T07:34:48Z</time>
      </trkpt>
      <trkpt lat="42.12186" lon="8.62346">
        <ele>-4.5</ele>
        <time>2017-06-05T07:34:57Z</time>
      </trkpt>
      <trkpt lat="42.12176" lon="8.62373">
        <ele>-4.69</ele>
        <time>2017-06-05T07:35:10Z</time>
      </trkpt>
      <trkpt lat="42.12174" lon="8.62404">
        <ele>-4.57</ele>
        <time>2017-06-05T07:35:23Z</time>
      </trkpt>
      <trkpt lat="42.12182" lon="8.62447">
        <ele>-4.33</ele>
        <time>2017-06-05T07:35:38Z</time>
      </trkpt>
      <trkpt lat="42.12192" lon="8.62481">
        <ele>-4.59</ele>
        <time>2017-06-05T07:35:50Z</time>
      </trkpt>
      <trkpt lat="42.12202" lon="8.62522">
        <ele>-4.16</ele>
        <time>2017-06-05T07:36:05Z</time>
      </trkpt>
      <trkpt lat="42.12211" lon="8.62564">
        <ele>-4.01</ele>
        <time>2017-06-05T07:36:21Z</time>
      </trkpt>
      <trkpt lat="42.12218" lon="8.626">
        <ele>-4.2</ele>
        <time>2017-06-05T07:36:34Z</time>
      </trkpt>
      <trkpt lat="42.12222" lon="8.62637">
        <ele>-4.29</ele>
        <time>2017-06-05T07:36:47Z</time>
      </trkpt>
      <trkpt lat="42.12228" lon="8.62681">
        <ele>-4.18</ele>
        <time>2017-06-05T07:37:04Z</time>
      </trkpt>
      <trkpt lat="42.12232" lon="8.62702">
        <ele>-3.93</ele>
        <time>2017-06-05T07:37:21Z</time>
      </trkpt>
      <trkpt lat="42.12234" lon="8.62729">
        <ele>-4.22</ele>
        <time>2017-06-05T07:37:34Z</time>
      </trkpt>
      <trkpt lat="42.12233" lon="8.62768">
        <ele>-4.01</ele>
        <time>2017-06-05T07:37:49Z</time>
      </trkpt>
      <trkpt lat="42.12228" lon="8.628">
        <ele>-3.92</ele>
        <time>2017-06-05T07:38:02Z</time>
      </trkpt>
      <trkpt lat="42.12218" lon="8.62829">
        <ele>-4.04</ele>
        <time>2017-06-05T07:38:14Z</time>
      </trkpt>
      <trkpt lat="42.12217" lon="8.62831">
        <ele>-4.04</ele>
        <time>2017-06-05T07:38:15Z</time>
      </trkpt>
      <trkpt lat="42.1221" lon="8.62866">
        <ele>-3.92</ele>
        <time>2017-06-05T07:38:28Z</time>
      </trkpt>
      <trkpt lat="42.12211" lon="8.62902">
        <ele>-3.85</ele>
        <time>2017-06-05T07:38:40Z</time>
      </trkpt>
      <trkpt lat="42.12218" lon="8.62937">
        <ele>-3.75</ele>
        <time>2017-06-05T07:38:53Z</time>
      </trkpt>
      <trkpt lat="42.12225" lon="8.62975">
        <ele>-3.63</ele>
        <time>2017-06-05T07:39:07Z</time>
      </trkpt>
      <trkpt lat="42.12228" lon="8.6301">
        <ele>-3.59</ele>
        <time>2017-06-05T07:39:20Z</time>
      </trkpt>
      <trkpt lat="42.12226" lon="8.63047">
        <ele>-3.65</ele>
        <time>2017-06-05T07:39:34Z</time>
      </trkpt>
      <trkpt lat="42.12225" lon="8.63052">
        <ele>-3.68</ele>
        <time>2017-06-05T07:39:36Z</time>
      </trkpt>
      <trkpt lat="42.12227" lon="8.63082">
        <ele>-3.7</ele>
        <time>2017-06-05T07:39:49Z</time>
      </trkpt>
      <trkpt lat="42.12232" lon="8.63112">
        <ele>-3.57</ele>
        <time>2017-06-05T07:40:00Z</time>
      </trkpt>
      <trkpt lat="42.1224" lon="8.63146">
        <ele>-3.21</ele>
        <time>2017-06-05T07:40:13Z</time>
      </trkpt>
      <trkpt lat="42.12249" lon="8.63176">
        <ele>-3.11</ele>
        <time>2017-06-05T07:40:25Z</time>
      </trkpt>
      <trkpt lat="42.12255" lon="8.63212">
        <ele>-3.57</ele>
        <time>2017-06-05T07:40:38Z</time>
      </trkpt>
      <trkpt lat="42.12258" lon="8.63245">
        <ele>-3.3</ele>
        <time>2017-06-05T07:40:52Z</time>
      </trkpt>
      <trkpt lat="42.1226" lon="8.6328">
        <ele>-3.19</ele>
        <time>2017-06-05T07:41:06Z</time>
      </trkpt>
      <trkpt lat="42.12265" lon="8.63313">
        <ele>-3.01</ele>
        <time>2017-06-05T07:41:20Z</time>
      </trkpt>
      <trkpt lat="42.12268" lon="8.63333">
        <ele>-3.35</ele>
        <time>2017-06-05T07:41:36Z</time>
      </trkpt>
      <trkpt lat="42.12275" lon="8.63363">
        <ele>-3.1</ele>
        <time>2017-06-05T07:41:51Z</time>
      </trkpt>
      <trkpt lat="42.12281" lon="8.6339">
        <ele>-3.31</ele>
        <time>2017-06-05T07:42:03Z</time>
      </trkpt>
      <trkpt lat="42.12274" lon="8.63425">
        <ele>-3.12</ele>
        <time>2017-06-05T07:42:17Z</time>
      </trkpt>
      <trkpt lat="42.12255" lon="8.63454">
        <ele>-2.82</ele>
        <time>2017-06-05T07:42:31Z</time>
      </trkpt>
      <trkpt lat="42.12232" lon="8.63474">
        <ele>-3.01</ele>
        <time>2017-06-05T07:42:45Z</time>
      </trkpt>
      <trkpt lat="42.12207" lon="8.63499">
        <ele>-2.65</ele>
        <time>2017-06-05T07:43:01Z</time>
      </trkpt>
      <trkpt lat="42.12187" lon="8.63516">
        <ele>-2.87</ele>
        <time>2017-06-05T07:43:13Z</time>
      </trkpt>
      <trkpt lat="42.12157" lon="8.63528">
        <ele>-2.69</ele>
        <time>2017-06-05T07:43:28Z</time>
      </trkpt>
      <trkpt lat="42.12132" lon="8.63536">
        <ele>-2.53</ele>
        <time>2017-06-05T07:43:42Z</time>
      </trkpt>
      <trkpt lat="42.12108" lon="8.63542">
        <ele>-2.6</ele>
        <time>2017-06-05T07:43:55Z</time>
      </trkpt>
      <trkpt lat="42.12101" lon="8.63545">
        <ele>-2.53</ele>
        <time>2017-06-05T07:43:59Z</time>
      </trkpt>
      <trkpt lat="42.12071" lon="8.63555">
        <ele>-2.61</ele>
        <time>2017-06-05T07:44:15Z</time>
      </trkpt>
      <trkpt lat="42.12047" lon="8.63559">
        <ele>-2.63</ele>
        <time>2017-06-05T07:44:27Z</time>
      </trkpt>
      <trkpt lat="42.12025" lon="8.63558">
        <ele>-2.67</ele>
        <time>2017-06-05T07:44:43Z</time>
      </trkpt>
      <trkpt lat="42.12011" lon="8.63553">
        <ele>-2.51</ele>
        <time>2017-06-05T07:44:57Z</time>
      </trkpt>
      <trkpt lat="42.11991" lon="8.63532">
        <ele>-2.21</ele>
        <time>2017-06-05T07:45:12Z</time>
      </trkpt>
      <trkpt lat="42.11986" lon="8.63525">
        <ele>-2.27</ele>
        <time>2017-06-05T07:45:16Z</time>
      </trkpt>
      <trkpt lat="42.11982" lon="8.63519">
        <ele>-2.31</ele>
        <time>2017-06-05T07:45:19Z</time>
      </trkpt>
      <trkpt lat="42.11974" lon="8.63511">
        <ele>-2.32</ele>
        <time>2017-06-05T07:45:24Z</time>
      </trkpt>
      <trkpt lat="42.11959" lon="8.635">
        <ele>-2.41</ele>
        <time>2017-06-05T07:45:33Z</time>
      </trkpt>
      <trkpt lat="42.11949" lon="8.63503">
        <ele>-2.2</ele>
        <time>2017-06-05T07:45:40Z</time>
      </trkpt>
      <trkpt lat="42.11935" lon="8.63529">
        <ele>-2.21</ele>
        <time>2017-06-05T07:45:54Z</time>
      </trkpt>
      <trkpt lat="42.11932" lon="8.63563">
        <ele>-2.16</ele>
        <time>2017-06-05T07:46:07Z</time>
      </trkpt>
      <trkpt lat="42.11926" lon="8.63593">
        <ele>-2</ele>
        <time>2017-06-05T07:46:18Z</time>
      </trkpt>
      <trkpt lat="42.11922" lon="8.63624">
        <ele>-1.9</ele>
        <time>2017-06-05T07:46:29Z</time>
      </trkpt>
      <trkpt lat="42.11918" lon="8.63651">
        <ele>-2.09</ele>
        <time>2017-06-05T07:46:39Z</time>
      </trkpt>
      <trkpt lat="42.11923" lon="8.63682">
        <ele>-2.06</ele>
        <time>2017-06-05T07:46:51Z</time>
      </trkpt>
      <trkpt lat="42.11934" lon="8.6371">
        <ele>-2.2</ele>
        <time>2017-06-05T07:47:04Z</time>
      </trkpt>
      <trkpt lat="42.11946" lon="8.63734">
        <ele>-2.15</ele>
        <time>2017-06-05T07:47:16Z</time>
      </trkpt>
      <trkpt lat="42.11951" lon="8.63752">
        <ele>-2.09</ele>
        <time>2017-06-05T07:47:29Z</time>
      </trkpt>
      <trkpt lat="42.11953" lon="8.63758">
        <ele>-2.06</ele>
        <time>2017-06-05T07:47:32Z</time>
      </trkpt>
      <trkpt lat="42.11956" lon="8.63766">
        <ele>-2.05</ele>
        <time>2017-06-05T07:47:36Z</time>
      </trkpt>
      <trkpt lat="42.11971" lon="8.63802">
        <ele>-2.13</ele>
        <time>2017-06-05T07:47:52Z</time>
      </trkpt>
      <trkpt lat="42.11977" lon="8.63821">
        <ele>-2.1</ele>
        <time>2017-06-05T07:48:05Z</time>
      </trkpt>
      <trkpt lat="42.1198" lon="8.63847">
        <ele>-1.95</ele>
        <time>2017-06-05T07:48:16Z</time>
      </trkpt>
      <trkpt lat="42.11979" lon="8.63879">
        <ele>-1.88</ele>
        <time>2017-06-05T07:48:28Z</time>
      </trkpt>
      <trkpt lat="42.11981" lon="8.63902">
        <ele>-1.8</ele>
        <time>2017-06-05T07:48:37Z</time>
      </trkpt>
      <trkpt lat="42.11983" lon="8.63933">
        <ele>-1.62</ele>
        <time>2017-06-05T07:48:51Z</time>
      </trkpt>
      <trkpt lat="42.11992" lon="8.63957">
        <ele>-1.58</ele>
        <time>2017-06-05T07:49:04Z</time>
      </trkpt>
      <trkpt lat="42.11993" lon="8.63958">
        <ele>-1.58</ele>
        <time>2017-06-05T07:49:05Z</time>
      </trkpt>
      <trkpt lat="42.12005" lon="8.63966">
        <ele>-1.82</ele>
        <time>2017-06-05T07:49:14Z</time>
      </trkpt>
      <trkpt lat="42.12013" lon="8.63969">
        <ele>-1.87</ele>
        <time>2017-06-05T07:49:19Z</time>
      </trkpt>
      <trkpt lat="42.12018" lon="8.6398">
        <ele>-1.86</ele>
        <time>2017-06-05T07:49:33Z</time>
      </trkpt>
      <trkpt lat="42.12018" lon="8.63984">
        <ele>-1.87</ele>
        <time>2017-06-05T07:49:36Z</time>
      </trkpt>
      <trkpt lat="42.12016" lon="8.6399">
        <ele>-1.96</ele>
        <time>2017-06-05T07:49:40Z</time>
      </trkpt>
      <trkpt lat="42.12006" lon="8.64013">
        <ele>-1.79</ele>
        <time>2017-06-05T07:49:55Z</time>
      </trkpt>
      <trkpt lat="42.11993" lon="8.6404">
        <ele>-1.91</ele>
        <time>2017-06-05T07:50:09Z</time>
      </trkpt>
      <trkpt lat="42.1199" lon="8.64048">
        <ele>-1.96</ele>
        <time>2017-06-05T07:50:13Z</time>
      </trkpt>
      <trkpt lat="42.11989" lon="8.64051">
        <ele>-1.96</ele>
        <time>2017-06-05T07:50:15Z</time>
      </trkpt>
      <trkpt lat="42.1199" lon="8.64073">
        <ele>-1.9</ele>
        <time>2017-06-05T07:50:30Z</time>
      </trkpt>
      <trkpt lat="42.11998" lon="8.64094">
        <ele>-1.88</ele>
        <time>2017-06-05T07:50:43Z</time>
      </trkpt>
      <trkpt lat="42.12008" lon="8.64116">
        <ele>-1.84</ele>
        <time>2017-06-05T07:50:54Z</time>
      </trkpt>
      <trkpt lat="42.12012" lon="8.64145">
        <ele>-1.8</ele>
        <time>2017-06-05T07:51:06Z</time>
      </trkpt>
      <trkpt lat="42.1202" lon="8.64174">
        <ele>-1.75</ele>
        <time>2017-06-05T07:51:19Z</time>
      </trkpt>
      <trkpt lat="42.12028" lon="8.64197">
        <ele>-1.86</ele>
        <time>2017-06-05T07:51:30Z</time>
      </trkpt>
      <trkpt lat="42.12043" lon="8.64226">
        <ele>-1.79</ele>
        <time>2017-06-05T07:51:45Z</time>
      </trkpt>
      <trkpt lat="42.12062" lon="8.64251">
        <ele>-1.83</ele>
        <time>2017-06-05T07:51:58Z</time>
      </trkpt>
      <trkpt lat="42.12067" lon="8.64278">
        <ele>-1.81</ele>
        <time>2017-06-05T07:52:11Z</time>
      </trkpt>
      <trkpt lat="42.12065" lon="8.64295">
        <ele>-1.83</ele>
        <time>2017-06-05T07:52:18Z</time>
      </trkpt>
      <trkpt lat="42.12054" lon="8.64317">
        <ele>-1.81</ele>
        <time>2017-06-05T07:52:30Z</time>
      </trkpt>
      <trkpt lat="42.12048" lon="8.64337">
        <ele>-1.95</ele>
        <time>2017-06-05T07:52:41Z</time>
      </trkpt>
      <trkpt lat="42.12046" lon="8.6437">
        <ele>-2.03</ele>
        <time>2017-06-05T07:52:54Z</time>
      </trkpt>
      <trkpt lat="42.12051" lon="8.64405">
        <ele>-1.97</ele>
        <time>2017-06-05T07:53:08Z</time>
      </trkpt>
      <trkpt lat="42.12069" lon="8.64438">
        <ele>-1.8</ele>
        <time>2017-06-05T07:53:22Z</time>
      </trkpt>
      <trkpt lat="42.12072" lon="8.64466">
        <ele>-2.02</ele>
        <time>2017-06-05T07:53:33Z</time>
      </trkpt>
      <trkpt lat="42.12063" lon="8.64492">
        <ele>-1.95</ele>
        <time>2017-06-05T07:53:43Z</time>
      </trkpt>
      <trkpt lat="42.12051" lon="8.64523">
        <ele>-1.81</ele>
        <time>2017-06-05T07:53:56Z</time>
      </trkpt>
      <trkpt lat="42.12031" lon="8.64549">
        <ele>-1.72</ele>
        <time>2017-06-05T07:54:10Z</time>
      </trkpt>
      <trkpt lat="42.1201" lon="8.6457">
        <ele>-1.53</ele>
        <time>2017-06-05T07:54:23Z</time>
      </trkpt>
      <trkpt lat="42.11989" lon="8.64584">
        <ele>-1.79</ele>
        <time>2017-06-05T07:54:36Z</time>
      </trkpt>
      <trkpt lat="42.11974" lon="8.64609">
        <ele>-1.73</ele>
        <time>2017-06-05T07:54:49Z</time>
      </trkpt>
      <trkpt lat="42.11968" lon="8.64621">
        <ele>-1.68</ele>
        <time>2017-06-05T07:54:54Z</time>
      </trkpt>
      <trkpt lat="42.11962" lon="8.64628">
        <ele>-1.88</ele>
        <time>2017-06-05T07:54:59Z</time>
      </trkpt>
      <trkpt lat="42.11942" lon="8.64644">
        <ele>-1.96</ele>
        <time>2017-06-05T07:55:13Z</time>
      </trkpt>
      <trkpt lat="42.11915" lon="8.64656">
        <ele>-1.75</ele>
        <time>2017-06-05T07:55:27Z</time>
      </trkpt>
      <trkpt lat="42.11885" lon="8.64657">
        <ele>-1.95</ele>
        <time>2017-06-05T07:55:44Z</time>
      </trkpt>
      <trkpt lat="42.1187" lon="8.64655">
        <ele>-1.95</ele>
        <time>2017-06-05T07:56:01Z</time>
      </trkpt>
      <trkpt lat="42.11868" lon="8.6466">
        <ele>-1.77</ele>
        <time>2017-06-05T07:56:25Z</time>
      </trkpt>
      <trkpt lat="42.11863" lon="8.64667">
        <ele>-1.66</ele>
        <time>2017-06-05T07:56:47Z</time>
      </trkpt>
      <trkpt lat="42.11858" lon="8.64672">
        <ele>-1.67</ele>
        <time>2017-06-05T07:56:55Z</time>
      </trkpt>
      <trkpt lat="42.11852" lon="8.64684">
        <ele>-1.66</ele>
        <time>2017-06-05T07:57:03Z</time>
      </trkpt>
      <trkpt lat="42.1185" lon="8.64712">
        <ele>-1.88</ele>
        <time>2017-06-05T07:57:14Z</time>
      </trkpt>
      <trkpt lat="42.11851" lon="8.64725">
        <ele>-1.81</ele>
        <time>2017-06-05T07:57:20Z</time>
      </trkpt>
      <trkpt lat="42.11847" lon="8.64748">
        <ele>-1.66</ele>
        <time>2017-06-05T07:57:32Z</time>
      </trkpt>
      <trkpt lat="42.11833" lon="8.64765">
        <ele>-1.81</ele>
        <time>2017-06-05T07:57:44Z</time>
      </trkpt>
      <trkpt lat="42.11821" lon="8.6478">
        <ele>-1.81</ele>
        <time>2017-06-05T07:57:53Z</time>
      </trkpt>
      <trkpt lat="42.11812" lon="8.64787">
        <ele>-1.71</ele>
        <time>2017-06-05T07:57:59Z</time>
      </trkpt>
      <trkpt lat="42.11788" lon="8.64804">
        <ele>-1.84</ele>
        <time>2017-06-05T07:58:13Z</time>
      </trkpt>
      <trkpt lat="42.1177" lon="8.64825">
        <ele>-1.61</ele>
        <time>2017-06-05T07:58:26Z</time>
      </trkpt>
      <trkpt lat="42.11752" lon="8.64844">
        <ele>-1.86</ele>
        <time>2017-06-05T07:58:37Z</time>
      </trkpt>
      <trkpt lat="42.11732" lon="8.64866">
        <ele>-1.86</ele>
        <time>2017-06-05T07:58:51Z</time>
      </trkpt>
      <trkpt lat="42.11708" lon="8.64894">
        <ele>-1.95</ele>
        <time>2017-06-05T07:59:07Z</time>
      </trkpt>
      <trkpt lat="42.11686" lon="8.64913">
        <ele>-2.07</ele>
        <time>2017-06-05T07:59:19Z</time>
      </trkpt>
      <trkpt lat="42.11659" lon="8.64931">
        <ele>-2.03</ele>
        <time>2017-06-05T07:59:33Z</time>
      </trkpt>
      <trkpt lat="42.11627" lon="8.64955">
        <ele>-2.02</ele>
        <time>2017-06-05T07:59:50Z</time>
      </trkpt>
      <trkpt lat="42.11604" lon="8.64969">
        <ele>-1.84</ele>
        <time>2017-06-05T08:00:05Z</time>
      </trkpt>
      <trkpt lat="42.11599" lon="8.64973">
        <ele>-1.83</ele>
        <time>2017-06-05T08:00:12Z</time>
      </trkpt>
      <trkpt lat="42.1158" lon="8.64987">
        <ele>-2.19</ele>
        <time>2017-06-05T08:00:25Z</time>
      </trkpt>
      <trkpt lat="42.11556" lon="8.64999">
        <ele>-2.31</ele>
        <time>2017-06-05T08:00:39Z</time>
      </trkpt>
      <trkpt lat="42.11531" lon="8.65014">
        <ele>-2.64</ele>
        <time>2017-06-05T08:00:55Z</time>
      </trkpt>
      <trkpt lat="42.11508" lon="8.65024">
        <ele>-2.28</ele>
        <time>2017-06-05T08:01:07Z</time>
      </trkpt>
      <trkpt lat="42.11482" lon="8.65034">
        <ele>-2.47</ele>
        <time>2017-06-05T08:01:20Z</time>
      </trkpt>
      <trkpt lat="42.1146" lon="8.65049">
        <ele>-2.65</ele>
        <time>2017-06-05T08:01:33Z</time>
      </trkpt>
      <trkpt lat="42.11433" lon="8.65067">
        <ele>-2.62</ele>
        <time>2017-06-05T08:01:48Z</time>
      </trkpt>
      <trkpt lat="42.11407" lon="8.65081">
        <ele>-2.45</ele>
        <time>2017-06-05T08:02:03Z</time>
      </trkpt>
      <trkpt lat="42.11382" lon="8.65098">
        <ele>-2.71</ele>
        <time>2017-06-05T08:02:17Z</time>
      </trkpt>
      <trkpt lat="42.11361" lon="8.65109">
        <ele>-2.56</ele>
        <time>2017-06-05T08:02:29Z</time>
      </trkpt>
      <trkpt lat="42.11339" lon="8.65123">
        <ele>-2.22</ele>
        <time>2017-06-05T08:02:44Z</time>
      </trkpt>
      <trkpt lat="42.11323" lon="8.65146">
        <ele>-2.44</ele>
        <time>2017-06-05T08:02:56Z</time>
      </trkpt>
      <trkpt lat="42.11303" lon="8.6517">
        <ele>-2.32</ele>
        <time>2017-06-05T08:03:11Z</time>
      </trkpt>
      <trkpt lat="42.11283" lon="8.65188">
        <ele>-2.5</ele>
        <time>2017-06-05T08:03:23Z</time>
      </trkpt>
      <trkpt lat="42.11268" lon="8.65213">
        <ele>-2.36</ele>
        <time>2017-06-05T08:03:36Z</time>
      </trkpt>
      <trkpt lat="42.11251" lon="8.65241">
        <ele>-2.35</ele>
        <time>2017-06-05T08:03:49Z</time>
      </trkpt>
      <trkpt lat="42.11234" lon="8.65258">
        <ele>-2.29</ele>
        <time>2017-06-05T08:04:00Z</time>
      </trkpt>
      <trkpt lat="42.11217" lon="8.65275">
        <ele>-2.09</ele>
        <time>2017-06-05T08:04:14Z</time>
      </trkpt>
      <trkpt lat="42.11198" lon="8.65287">
        <ele>-2.45</ele>
        <time>2017-06-05T08:04:25Z</time>
      </trkpt>
      <trkpt lat="42.11174" lon="8.65302">
        <ele>-2.27</ele>
        <time>2017-06-05T08:04:37Z</time>
      </trkpt>
      <trkpt lat="42.11162" lon="8.65313">
        <ele>-2.24</ele>
        <time>2017-06-05T08:04:49Z</time>
      </trkpt>
      <trkpt lat="42.11145" lon="8.65335">
        <ele>-2.29</ele>
        <time>2017-06-05T08:05:03Z</time>
      </trkpt>
      <trkpt lat="42.11121" lon="8.65362">
        <ele>-2.09</ele>
        <time>2017-06-05T08:05:17Z</time>
      </trkpt>
      <trkpt lat="42.11103" lon="8.65378">
        <ele>-2.09</ele>
        <time>2017-06-05T08:05:29Z</time>
      </trkpt>
      <trkpt lat="42.11096" lon="8.65386">
        <ele>-1.98</ele>
        <time>2017-06-05T08:05:33Z</time>
      </trkpt>
      <trkpt lat="42.11071" lon="8.65417">
        <ele>-2</ele>
        <time>2017-06-05T08:05:49Z</time>
      </trkpt>
      <trkpt lat="42.11052" lon="8.65437">
        <ele>-2.17</ele>
        <time>2017-06-05T08:06:01Z</time>
      </trkpt>
      <trkpt lat="42.11032" lon="8.65457">
        <ele>-2.16</ele>
        <time>2017-06-05T08:06:13Z</time>
      </trkpt>
      <trkpt lat="42.11006" lon="8.65482">
        <ele>-2.19</ele>
        <time>2017-06-05T08:06:29Z</time>
      </trkpt>
      <trkpt lat="42.10984" lon="8.655">
        <ele>-2.12</ele>
        <time>2017-06-05T08:06:42Z</time>
      </trkpt>
      <trkpt lat="42.10957" lon="8.65518">
        <ele>-2.2</ele>
        <time>2017-06-05T08:06:57Z</time>
      </trkpt>
      <trkpt lat="42.1093" lon="8.65537">
        <ele>-2.15</ele>
        <time>2017-06-05T08:07:11Z</time>
      </trkpt>
      <trkpt lat="42.10905" lon="8.65548">
        <ele>-2.05</ele>
        <time>2017-06-05T08:07:24Z</time>
      </trkpt>
      <trkpt lat="42.10878" lon="8.65561">
        <ele>-2.06</ele>
        <time>2017-06-05T08:07:38Z</time>
      </trkpt>
      <trkpt lat="42.10856" lon="8.65572">
        <ele>-2.08</ele>
        <time>2017-06-05T08:07:50Z</time>
      </trkpt>
      <trkpt lat="42.10831" lon="8.65589">
        <ele>-2.09</ele>
        <time>2017-06-05T08:08:04Z</time>
      </trkpt>
      <trkpt lat="42.10806" lon="8.65606">
        <ele>-2.06</ele>
        <time>2017-06-05T08:08:18Z</time>
      </trkpt>
      <trkpt lat="42.10785" lon="8.65623">
        <ele>-2.18</ele>
        <time>2017-06-05T08:08:32Z</time>
      </trkpt>
      <trkpt lat="42.10759" lon="8.65636">
        <ele>-2.04</ele>
        <time>2017-06-05T08:08:45Z</time>
      </trkpt>
      <trkpt lat="42.10732" lon="8.6565">
        <ele>-1.93</ele>
        <time>2017-06-05T08:08:58Z</time>
      </trkpt>
      <trkpt lat="42.10708" lon="8.65662">
        <ele>-1.88</ele>
        <time>2017-06-05T08:09:10Z</time>
      </trkpt>
      <trkpt lat="42.10689" lon="8.65673">
        <ele>-1.88</ele>
        <time>2017-06-05T08:09:23Z</time>
      </trkpt>
      <trkpt lat="42.10665" lon="8.65682">
        <ele>-2.06</ele>
        <time>2017-06-05T08:09:37Z</time>
      </trkpt>
      <trkpt lat="42.10664" lon="8.65683">
        <ele>-2.07</ele>
        <time>2017-06-05T08:09:38Z</time>
      </trkpt>
      <trkpt lat="42.10652" lon="8.65685">
        <ele>-2.19</ele>
        <time>2017-06-05T08:09:44Z</time>
      </trkpt>
      <trkpt lat="42.10615" lon="8.6569">
        <ele>-2.05</ele>
        <time>2017-06-05T08:10:03Z</time>
      </trkpt>
      <trkpt lat="42.10607" lon="8.65691">
        <ele>-2.13</ele>
        <time>2017-06-05T08:10:07Z</time>
      </trkpt>
      <trkpt lat="42.10582" lon="8.657">
        <ele>-2.25</ele>
        <time>2017-06-05T08:10:22Z</time>
      </trkpt>
      <trkpt lat="42.10558" lon="8.65714">
        <ele>-2.17</ele>
        <time>2017-06-05T08:10:36Z</time>
      </trkpt>
      <trkpt lat="42.1054" lon="8.65726">
        <ele>-2.22</ele>
        <time>2017-06-05T08:10:47Z</time>
      </trkpt>
      <trkpt lat="42.10518" lon="8.65744">
        <ele>-2.09</ele>
        <time>2017-06-05T08:11:01Z</time>
      </trkpt>
      <trkpt lat="42.105" lon="8.65753">
        <ele>-2.2</ele>
        <time>2017-06-05T08:11:13Z</time>
      </trkpt>
      <trkpt lat="42.1048" lon="8.65761">
        <ele>-1.98</ele>
        <time>2017-06-05T08:11:26Z</time>
      </trkpt>
      <trkpt lat="42.10478" lon="8.65762">
        <ele>-1.94</ele>
        <time>2017-06-05T08:11:27Z</time>
      </trkpt>
      <trkpt lat="42.10452" lon="8.65766">
        <ele>-2.05</ele>
        <time>2017-06-05T08:11:42Z</time>
      </trkpt>
      <trkpt lat="42.10426" lon="8.65764">
        <ele>-1.85</ele>
        <time>2017-06-05T08:11:57Z</time>
      </trkpt>
      <trkpt lat="42.1042" lon="8.65763">
        <ele>-1.81</ele>
        <time>2017-06-05T08:12:00Z</time>
      </trkpt>
      <trkpt lat="42.10408" lon="8.6576">
        <ele>-1.8</ele>
        <time>2017-06-05T08:12:07Z</time>
      </trkpt>
      <trkpt lat="42.10379" lon="8.65762">
        <ele>-1.9</ele>
        <time>2017-06-05T08:12:22Z</time>
      </trkpt>
      <trkpt lat="42.10355" lon="8.65763">
        <ele>-1.87</ele>
        <time>2017-06-05T08:12:36Z</time>
      </trkpt>
      <trkpt lat="42.10332" lon="8.6577">
        <ele>-1.91</ele>
        <time>2017-06-05T08:12:48Z</time>
      </trkpt>
      <trkpt lat="42.10306" lon="8.65779">
        <ele>-2.09</ele>
        <time>2017-06-05T08:13:00Z</time>
      </trkpt>
      <trkpt lat="42.10284" lon="8.65783">
        <ele>-1.67</ele>
        <time>2017-06-05T08:13:13Z</time>
      </trkpt>
      <trkpt lat="42.10261" lon="8.65791">
        <ele>-1.67</ele>
        <time>2017-06-05T08:13:26Z</time>
      </trkpt>
      <trkpt lat="42.10235" lon="8.65796">
        <ele>-1.74</ele>
        <time>2017-06-05T08:13:38Z</time>
      </trkpt>
      <trkpt lat="42.10208" lon="8.65803">
        <ele>-1.76</ele>
        <time>2017-06-05T08:13:52Z</time>
      </trkpt>
      <trkpt lat="42.10179" lon="8.65803">
        <ele>-1.7</ele>
        <time>2017-06-05T08:14:06Z</time>
      </trkpt>
      <trkpt lat="42.10153" lon="8.65809">
        <ele>-1.73</ele>
        <time>2017-06-05T08:14:19Z</time>
      </trkpt>
      <trkpt lat="42.10146" lon="8.6581">
        <ele>-1.8</ele>
        <time>2017-06-05T08:14:23Z</time>
      </trkpt>
      <trkpt lat="42.10143" lon="8.6581">
        <ele>-1.81</ele>
        <time>2017-06-05T08:14:25Z</time>
      </trkpt>
      <trkpt lat="42.10132" lon="8.65813">
        <ele>-1.73</ele>
        <time>2017-06-05T08:14:31Z</time>
      </trkpt>
      <trkpt lat="42.10107" lon="8.65825">
        <ele>-1.71</ele>
        <time>2017-06-05T08:14:45Z</time>
      </trkpt>
      <trkpt lat="42.10087" lon="8.65838">
        <ele>-1.79</ele>
        <time>2017-06-05T08:14:56Z</time>
      </trkpt>
      <trkpt lat="42.10069" lon="8.65871">
        <ele>-1.81</ele>
        <time>2017-06-05T08:15:11Z</time>
      </trkpt>
      <trkpt lat="42.10055" lon="8.65893">
        <ele>-1.67</ele>
        <time>2017-06-05T08:15:22Z</time>
      </trkpt>
      <trkpt lat="42.10044" lon="8.65925">
        <ele>-1.53</ele>
        <time>2017-06-05T08:15:35Z</time>
      </trkpt>
      <trkpt lat="42.10037" lon="8.65963">
        <ele>-1.33</ele>
        <time>2017-06-05T08:15:50Z</time>
      </trkpt>
      <trkpt lat="42.10035" lon="8.65993">
        <ele>-1.16</ele>
        <time>2017-06-05T08:16:02Z</time>
      </trkpt>
      <trkpt lat="42.10039" lon="8.66023">
        <ele>-1.31</ele>
        <time>2017-06-05T08:16:13Z</time>
      </trkpt>
      <trkpt lat="42.10045" lon="8.66055">
        <ele>-1.29</ele>
        <time>2017-06-05T08:16:25Z</time>
      </trkpt>
      <trkpt lat="42.10055" lon="8.66088">
        <ele>-1.29</ele>
        <time>2017-06-05T08:16:38Z</time>
      </trkpt>
      <trkpt lat="42.10066" lon="8.66113">
        <ele>-1.21</ele>
        <time>2017-06-05T08:16:50Z</time>
      </trkpt>
      <trkpt lat="42.10077" lon="8.66135">
        <ele>-1.07</ele>
        <time>2017-06-05T08:17:01Z</time>
      </trkpt>
      <trkpt lat="42.10089" lon="8.66148">
        <ele>-0.9</ele>
        <time>2017-06-05T08:17:14Z</time>
      </trkpt>
      <trkpt lat="42.10094" lon="8.66153">
        <ele>-1</ele>
        <time>2017-06-05T08:17:19Z</time>
      </trkpt>
      <trkpt lat="42.10117" lon="8.66176">
        <ele>-1.25</ele>
        <time>2017-06-05T08:17:35Z</time>
      </trkpt>
      <trkpt lat="42.10143" lon="8.66184">
        <ele>-1.33</ele>
        <time>2017-06-05T08:17:47Z</time>
      </trkpt>
      <trkpt lat="42.10176" lon="8.66192">
        <ele>-1.15</ele>
        <time>2017-06-05T08:18:03Z</time>
      </trkpt>
      <trkpt lat="42.10205" lon="8.66203">
        <ele>-1.19</ele>
        <time>2017-06-05T08:18:18Z</time>
      </trkpt>
      <trkpt lat="42.10216" lon="8.6621">
        <ele>-1.33</ele>
        <time>2017-06-05T08:18:26Z</time>
      </trkpt>
      <trkpt lat="42.10222" lon="8.66221">
        <ele>-1.26</ele>
        <time>2017-06-05T08:18:32Z</time>
      </trkpt>
      <trkpt lat="42.10225" lon="8.66227">
        <ele>-1.36</ele>
        <time>2017-06-05T08:18:35Z</time>
      </trkpt>
      <trkpt lat="42.10229" lon="8.66233">
        <ele>-1.28</ele>
        <time>2017-06-05T08:18:38Z</time>
      </trkpt>
      <trkpt lat="42.10234" lon="8.66252">
        <ele>-1.3</ele>
        <time>2017-06-05T08:18:46Z</time>
      </trkpt>
      <trkpt lat="42.10239" lon="8.66273">
        <ele>-1.26</ele>
        <time>2017-06-05T08:18:55Z</time>
      </trkpt>
      <trkpt lat="42.10257" lon="8.66301">
        <ele>-1.59</ele>
        <time>2017-06-05T08:19:10Z</time>
      </trkpt>
      <trkpt lat="42.10273" lon="8.66306">
        <ele>-1.8</ele>
        <time>2017-06-05T08:19:18Z</time>
      </trkpt>
      <trkpt lat="42.10279" lon="8.66311">
        <ele>-1.96</ele>
        <time>2017-06-05T08:19:22Z</time>
      </trkpt>
      <trkpt lat="42.10307" lon="8.66327">
        <ele>-1.71</ele>
        <time>2017-06-05T08:19:36Z</time>
      </trkpt>
      <trkpt lat="42.10338" lon="8.66338">
        <ele>-1.81</ele>
        <time>2017-06-05T08:19:51Z</time>
      </trkpt>
      <trkpt lat="42.10359" lon="8.66345">
        <ele>-1.63</ele>
        <time>2017-06-05T08:20:04Z</time>
      </trkpt>
      <trkpt lat="42.10369" lon="8.66353">
        <ele>-1.57</ele>
        <time>2017-06-05T08:20:13Z</time>
      </trkpt>
      <trkpt lat="42.10373" lon="8.66356">
        <ele>-1.63</ele>
        <time>2017-06-05T08:20:16Z</time>
      </trkpt>
      <trkpt lat="42.10397" lon="8.66372">
        <ele>-1.87</ele>
        <time>2017-06-05T08:20:30Z</time>
      </trkpt>
      <trkpt lat="42.10402" lon="8.66375">
        <ele>-1.84</ele>
        <time>2017-06-05T08:20:33Z</time>
      </trkpt>
      <trkpt lat="42.10408" lon="8.66381">
        <ele>-1.91</ele>
        <time>2017-06-05T08:20:37Z</time>
      </trkpt>
      <trkpt lat="42.10436" lon="8.66404">
        <ele>-1.96</ele>
        <time>2017-06-05T08:20:52Z</time>
      </trkpt>
      <trkpt lat="42.10461" lon="8.66427">
        <ele>-2.07</ele>
        <time>2017-06-05T08:21:06Z</time>
      </trkpt>
      <trkpt lat="42.10469" lon="8.6644">
        <ele>-2.18</ele>
        <time>2017-06-05T08:21:16Z</time>
      </trkpt>
      <trkpt lat="42.10472" lon="8.66445">
        <ele>-2.18</ele>
        <time>2017-06-05T08:21:19Z</time>
      </trkpt>
      <trkpt lat="42.10482" lon="8.66457">
        <ele>-2.22</ele>
        <time>2017-06-05T08:21:28Z</time>
      </trkpt>
      <trkpt lat="42.1051" lon="8.66471">
        <ele>-2.32</ele>
        <time>2017-06-05T08:21:43Z</time>
      </trkpt>
      <trkpt lat="42.10539" lon="8.66487">
        <ele>-2.23</ele>
        <time>2017-06-05T08:21:58Z</time>
      </trkpt>
      <trkpt lat="42.10551" lon="8.66506">
        <ele>-2.38</ele>
        <time>2017-06-05T08:22:10Z</time>
      </trkpt>
      <trkpt lat="42.10552" lon="8.66512">
        <ele>-2.31</ele>
        <time>2017-06-05T08:22:13Z</time>
      </trkpt>
      <trkpt lat="42.1057" lon="8.66551">
        <ele>-2.66</ele>
        <time>2017-06-05T08:22:30Z</time>
      </trkpt>
      <trkpt lat="42.10583" lon="8.6659">
        <ele>-2.6</ele>
        <time>2017-06-05T08:22:45Z</time>
      </trkpt>
      <trkpt lat="42.10593" lon="8.66621">
        <ele>-2.63</ele>
        <time>2017-06-05T08:22:57Z</time>
      </trkpt>
      <trkpt lat="42.10599" lon="8.6664">
        <ele>-2.86</ele>
        <time>2017-06-05T08:23:04Z</time>
      </trkpt>
      <trkpt lat="42.10599" lon="8.66663">
        <ele>-2.98</ele>
        <time>2017-06-05T08:23:14Z</time>
      </trkpt>
      <trkpt lat="42.10589" lon="8.66687">
        <ele>-3.34</ele>
        <time>2017-06-05T08:23:25Z</time>
      </trkpt>
      <trkpt lat="42.10584" lon="8.66693">
        <ele>-3.31</ele>
        <time>2017-06-05T08:23:30Z</time>
      </trkpt>
      <trkpt lat="42.10571" lon="8.66719">
        <ele>-3.28</ele>
        <time>2017-06-05T08:23:45Z</time>
      </trkpt>
      <trkpt lat="42.10569" lon="8.66747">
        <ele>-2.93</ele>
        <time>2017-06-05T08:23:57Z</time>
      </trkpt>
      <trkpt lat="42.10576" lon="8.6678">
        <ele>-2.85</ele>
        <time>2017-06-05T08:24:10Z</time>
      </trkpt>
      <trkpt lat="42.10591" lon="8.6681">
        <ele>-2.78</ele>
        <time>2017-06-05T08:24:23Z</time>
      </trkpt>
      <trkpt lat="42.10604" lon="8.66834">
        <ele>-2.49</ele>
        <time>2017-06-05T08:24:34Z</time>
      </trkpt>
      <trkpt lat="42.10611" lon="8.66872">
        <ele>-2.72</ele>
        <time>2017-06-05T08:24:47Z</time>
      </trkpt>
      <trkpt lat="42.10613" lon="8.6691">
        <ele>-2.81</ele>
        <time>2017-06-05T08:25:01Z</time>
      </trkpt>
      <trkpt lat="42.10614" lon="8.66943">
        <ele>-2.87</ele>
        <time>2017-06-05T08:25:12Z</time>
      </trkpt>
      <trkpt lat="42.10622" lon="8.66977">
        <ele>-2.61</ele>
        <time>2017-06-05T08:25:25Z</time>
      </trkpt>
      <trkpt lat="42.10636" lon="8.67015">
        <ele>-2.68</ele>
        <time>2017-06-05T08:25:40Z</time>
      </trkpt>
      <trkpt lat="42.10631" lon="8.67057">
        <ele>-2.76</ele>
        <time>2017-06-05T08:25:54Z</time>
      </trkpt>
      <trkpt lat="42.10623" lon="8.67096">
        <ele>-2.86</ele>
        <time>2017-06-05T08:26:09Z</time>
      </trkpt>
      <trkpt lat="42.10629" lon="8.67127">
        <ele>-2.6</ele>
        <time>2017-06-05T08:26:21Z</time>
      </trkpt>
      <trkpt lat="42.10636" lon="8.67155">
        <ele>-2.71</ele>
        <time>2017-06-05T08:26:36Z</time>
      </trkpt>
      <trkpt lat="42.1064" lon="8.67164">
        <ele>-2.61</ele>
        <time>2017-06-05T08:26:41Z</time>
      </trkpt>
      <trkpt lat="42.10652" lon="8.67192">
        <ele>-2.63</ele>
        <time>2017-06-05T08:26:53Z</time>
      </trkpt>
      <trkpt lat="42.10656" lon="8.672">
        <ele>-2.62</ele>
        <time>2017-06-05T08:26:57Z</time>
      </trkpt>
      <trkpt lat="42.10659" lon="8.67211">
        <ele>-2.77</ele>
        <time>2017-06-05T08:27:02Z</time>
      </trkpt>
      <trkpt lat="42.10667" lon="8.67244">
        <ele>-2.86</ele>
        <time>2017-06-05T08:27:15Z</time>
      </trkpt>
      <trkpt lat="42.10672" lon="8.67265">
        <ele>-2.87</ele>
        <time>2017-06-05T08:27:25Z</time>
      </trkpt>
      <trkpt lat="42.10675" lon="8.67286">
        <ele>-2.8</ele>
        <time>2017-06-05T08:27:37Z</time>
      </trkpt>
      <trkpt lat="42.10675" lon="8.67321">
        <ele>-2.82</ele>
        <time>2017-06-05T08:27:51Z</time>
      </trkpt>
      <trkpt lat="42.10664" lon="8.67362">
        <ele>-2.96</ele>
        <time>2017-06-05T08:28:07Z</time>
      </trkpt>
      <trkpt lat="42.10654" lon="8.6739">
        <ele>-3.17</ele>
        <time>2017-06-05T08:28:22Z</time>
      </trkpt>
      <trkpt lat="42.10637" lon="8.67417">
        <ele>-3.35</ele>
        <time>2017-06-05T08:28:38Z</time>
      </trkpt>
      <trkpt lat="42.10627" lon="8.67453">
        <ele>-3.3</ele>
        <time>2017-06-05T08:28:53Z</time>
      </trkpt>
      <trkpt lat="42.10626" lon="8.67458">
        <ele>-3.32</ele>
        <time>2017-06-05T08:28:55Z</time>
      </trkpt>
      <trkpt lat="42.10617" lon="8.67503">
        <ele>-3.37</ele>
        <time>2017-06-05T08:29:11Z</time>
      </trkpt>
      <trkpt lat="42.10606" lon="8.6753">
        <ele>-3.25</ele>
        <time>2017-06-05T08:29:24Z</time>
      </trkpt>
      <trkpt lat="42.10586" lon="8.67562">
        <ele>-3.5</ele>
        <time>2017-06-05T08:29:39Z</time>
      </trkpt>
      <trkpt lat="42.10571" lon="8.67593">
        <ele>-3.5</ele>
        <time>2017-06-05T08:29:52Z</time>
      </trkpt>
      <trkpt lat="42.10557" lon="8.67625">
        <ele>-3.44</ele>
        <time>2017-06-05T08:30:06Z</time>
      </trkpt>
      <trkpt lat="42.10549" lon="8.67657">
        <ele>-3.33</ele>
        <time>2017-06-05T08:30:18Z</time>
      </trkpt>
      <trkpt lat="42.10534" lon="8.67695">
        <ele>-3.14</ele>
        <time>2017-06-05T08:30:32Z</time>
      </trkpt>
      <trkpt lat="42.10516" lon="8.67731">
        <ele>-3.33</ele>
        <time>2017-06-05T08:30:48Z</time>
      </trkpt>
      <trkpt lat="42.10507" lon="8.6777">
        <ele>-3.34</ele>
        <time>2017-06-05T08:31:05Z</time>
      </trkpt>
      <trkpt lat="42.10495" lon="8.67804">
        <ele>-2.96</ele>
        <time>2017-06-05T08:31:20Z</time>
      </trkpt>
      <trkpt lat="42.10478" lon="8.67836">
        <ele>-3.13</ele>
        <time>2017-06-05T08:31:35Z</time>
      </trkpt>
      <trkpt lat="42.10461" lon="8.67857">
        <ele>-3.11</ele>
        <time>2017-06-05T08:31:48Z</time>
      </trkpt>
      <trkpt lat="42.10452" lon="8.67884">
        <ele>-2.76</ele>
        <time>2017-06-05T08:32:02Z</time>
      </trkpt>
      <trkpt lat="42.10453" lon="8.67912">
        <ele>-2.85</ele>
        <time>2017-06-05T08:32:15Z</time>
      </trkpt>
      <trkpt lat="42.1047" lon="8.67937">
        <ele>-2.78</ele>
        <time>2017-06-05T08:32:29Z</time>
      </trkpt>
      <trkpt lat="42.10486" lon="8.67978">
        <ele>-2.62</ele>
        <time>2017-06-05T08:32:43Z</time>
      </trkpt>
      <trkpt lat="42.10487" lon="8.68012">
        <ele>-2.57</ele>
        <time>2017-06-05T08:32:54Z</time>
      </trkpt>
      <trkpt lat="42.10491" lon="8.68043">
        <ele>-2.38</ele>
        <time>2017-06-05T08:33:07Z</time>
      </trkpt>
      <trkpt lat="42.10506" lon="8.68076">
        <ele>-2.32</ele>
        <time>2017-06-05T08:33:20Z</time>
      </trkpt>
      <trkpt lat="42.10531" lon="8.68113">
        <ele>-2.26</ele>
        <time>2017-06-05T08:33:36Z</time>
      </trkpt>
      <trkpt lat="42.1055" lon="8.68133">
        <ele>-2.25</ele>
        <time>2017-06-05T08:33:48Z</time>
      </trkpt>
      <trkpt lat="42.10569" lon="8.68148">
        <ele>-2.31</ele>
        <time>2017-06-05T08:34:01Z</time>
      </trkpt>
      <trkpt lat="42.10574" lon="8.68171">
        <ele>-2.47</ele>
        <time>2017-06-05T08:34:12Z</time>
      </trkpt>
      <trkpt lat="42.10577" lon="8.68179">
        <ele>-2.4</ele>
        <time>2017-06-05T08:34:16Z</time>
      </trkpt>
      <trkpt lat="42.10599" lon="8.68203">
        <ele>-2.34</ele>
        <time>2017-06-05T08:34:30Z</time>
      </trkpt>
      <trkpt lat="42.10625" lon="8.68223">
        <ele>-2.23</ele>
        <time>2017-06-05T08:34:43Z</time>
      </trkpt>
      <trkpt lat="42.10652" lon="8.68237">
        <ele>-2.27</ele>
        <time>2017-06-05T08:34:57Z</time>
      </trkpt>
      <trkpt lat="42.10678" lon="8.68247">
        <ele>-2.47</ele>
        <time>2017-06-05T08:35:11Z</time>
      </trkpt>
      <trkpt lat="42.107" lon="8.68279">
        <ele>-2.39</ele>
        <time>2017-06-05T08:35:27Z</time>
      </trkpt>
      <trkpt lat="42.10723" lon="8.68308">
        <ele>-2.36</ele>
        <time>2017-06-05T08:35:42Z</time>
      </trkpt>
      <trkpt lat="42.10745" lon="8.68328">
        <ele>-2.03</ele>
        <time>2017-06-05T08:35:55Z</time>
      </trkpt>
      <trkpt lat="42.10773" lon="8.68359">
        <ele>-2.2</ele>
        <time>2017-06-05T08:36:11Z</time>
      </trkpt>
      <trkpt lat="42.10791" lon="8.68378">
        <ele>-2.29</ele>
        <time>2017-06-05T08:36:22Z</time>
      </trkpt>
      <trkpt lat="42.10813" lon="8.68403">
        <ele>-2.26</ele>
        <time>2017-06-05T08:36:37Z</time>
      </trkpt>
      <trkpt lat="42.10832" lon="8.68426">
        <ele>-2.18</ele>
        <time>2017-06-05T08:36:50Z</time>
      </trkpt>
      <trkpt lat="42.10854" lon="8.68454">
        <ele>-2.11</ele>
        <time>2017-06-05T08:37:05Z</time>
      </trkpt>
      <trkpt lat="42.10871" lon="8.68482">
        <ele>-2.5</ele>
        <time>2017-06-05T08:37:19Z</time>
      </trkpt>
      <trkpt lat="42.10885" lon="8.68511">
        <ele>-2.48</ele>
        <time>2017-06-05T08:37:33Z</time>
      </trkpt>
      <trkpt lat="42.10886" lon="8.6853">
        <ele>-2.38</ele>
        <time>2017-06-05T08:37:49Z</time>
      </trkpt>
      <trkpt lat="42.1089" lon="8.6854">
        <ele>-2.63</ele>
        <time>2017-06-05T08:38:16Z</time>
      </trkpt>
      <trkpt lat="42.1089" lon="8.68548">
        <ele>-2.58</ele>
        <time>2017-06-05T08:38:29Z</time>
      </trkpt>
      <trkpt lat="42.10889" lon="8.68551">
        <ele>-2.49</ele>
        <time>2017-06-05T08:38:31Z</time>
      </trkpt>
      <trkpt lat="42.10883" lon="8.68581">
        <ele>-2.74</ele>
        <time>2017-06-05T08:38:47Z</time>
      </trkpt>
      <trkpt lat="42.10877" lon="8.68612">
        <ele>-2.52</ele>
        <time>2017-06-05T08:39:01Z</time>
      </trkpt>
      <trkpt lat="42.10888" lon="8.68643">
        <ele>-2.23</ele>
        <time>2017-06-05T08:39:16Z</time>
      </trkpt>
      <trkpt lat="42.10911" lon="8.6865">
        <ele>-2.22</ele>
        <time>2017-06-05T08:39:29Z</time>
      </trkpt>
      <trkpt lat="42.10916" lon="8.68653">
        <ele>-2.17</ele>
        <time>2017-06-05T08:39:33Z</time>
      </trkpt>
      <trkpt lat="42.10925" lon="8.68656">
        <ele>-2.28</ele>
        <time>2017-06-05T08:39:49Z</time>
      </trkpt>
      <trkpt lat="42.10931" lon="8.68663">
        <ele>-2.36</ele>
        <time>2017-06-05T08:40:04Z</time>
      </trkpt>
      <trkpt lat="42.10932" lon="8.68665">
        <ele>-2.42</ele>
        <time>2017-06-05T08:40:06Z</time>
      </trkpt>
      <trkpt lat="42.10935" lon="8.6867">
        <ele>-2.48</ele>
        <time>2017-06-05T08:40:09Z</time>
      </trkpt>
      <trkpt lat="42.10937" lon="8.68674">
        <ele>-2.51</ele>
        <time>2017-06-05T08:40:12Z</time>
      </trkpt>
      <trkpt lat="42.10952" lon="8.68695">
        <ele>-2.88</ele>
        <time>2017-06-05T08:40:28Z</time>
      </trkpt>
      <trkpt lat="42.10976" lon="8.68719">
        <ele>-2.99</ele>
        <time>2017-06-05T08:40:43Z</time>
      </trkpt>
      <trkpt lat="42.11003" lon="8.68743">
        <ele>-3.05</ele>
        <time>2017-06-05T08:40:57Z</time>
      </trkpt>
      <trkpt lat="42.11028" lon="8.68765">
        <ele>-3.06</ele>
        <time>2017-06-05T08:41:10Z</time>
      </trkpt>
      <trkpt lat="42.11049" lon="8.68787">
        <ele>-3.14</ele>
        <time>2017-06-05T08:41:24Z</time>
      </trkpt>
      <trkpt lat="42.11072" lon="8.68804">
        <ele>-3.34</ele>
        <time>2017-06-05T08:41:40Z</time>
      </trkpt>
      <trkpt lat="42.11093" lon="8.68828">
        <ele>-3.48</ele>
        <time>2017-06-05T08:41:56Z</time>
      </trkpt>
      <trkpt lat="42.11108" lon="8.68852">
        <ele>-3.34</ele>
        <time>2017-06-05T08:42:11Z</time>
      </trkpt>
      <trkpt lat="42.11114" lon="8.68882">
        <ele>-3.55</ele>
        <time>2017-06-05T08:42:25Z</time>
      </trkpt>
      <trkpt lat="42.11122" lon="8.68925">
        <ele>-3.79</ele>
        <time>2017-06-05T08:42:40Z</time>
      </trkpt>
      <trkpt lat="42.11124" lon="8.68965">
        <ele>-3.72</ele>
        <time>2017-06-05T08:42:54Z</time>
      </trkpt>
      <trkpt lat="42.11125" lon="8.69004">
        <ele>-3.61</ele>
        <time>2017-06-05T08:43:07Z</time>
      </trkpt>
      <trkpt lat="42.11129" lon="8.69051">
        <ele>-3.63</ele>
        <time>2017-06-05T08:43:22Z</time>
      </trkpt>
      <trkpt lat="42.11134" lon="8.6909">
        <ele>-3.76</ele>
        <time>2017-06-05T08:43:35Z</time>
      </trkpt>
      <trkpt lat="42.11142" lon="8.69133">
        <ele>-3.85</ele>
        <time>2017-06-05T08:43:50Z</time>
      </trkpt>
      <trkpt lat="42.11153" lon="8.69174">
        <ele>-3.76</ele>
        <time>2017-06-05T08:44:04Z</time>
      </trkpt>
      <trkpt lat="42.11158" lon="8.69221">
        <ele>-3.87</ele>
        <time>2017-06-05T08:44:19Z</time>
      </trkpt>
      <trkpt lat="42.11167" lon="8.69253">
        <ele>-3.85</ele>
        <time>2017-06-05T08:44:33Z</time>
      </trkpt>
      <trkpt lat="42.11181" lon="8.69291">
        <ele>-4.16</ele>
        <time>2017-06-05T08:44:47Z</time>
      </trkpt>
      <trkpt lat="42.11199" lon="8.69319">
        <ele>-4.24</ele>
        <time>2017-06-05T08:45:00Z</time>
      </trkpt>
      <trkpt lat="42.1122" lon="8.69343">
        <ele>-4.59</ele>
        <time>2017-06-05T08:45:12Z</time>
      </trkpt>
      <trkpt lat="42.11243" lon="8.69379">
        <ele>-4.52</ele>
        <time>2017-06-05T08:45:27Z</time>
      </trkpt>
      <trkpt lat="42.11262" lon="8.69412">
        <ele>-4.68</ele>
        <time>2017-06-05T08:45:40Z</time>
      </trkpt>
      <trkpt lat="42.11281" lon="8.69436">
        <ele>-4.5</ele>
        <time>2017-06-05T08:45:52Z</time>
      </trkpt>
      <trkpt lat="42.11303" lon="8.69459">
        <ele>-4.37</ele>
        <time>2017-06-05T08:46:06Z</time>
      </trkpt>
      <trkpt lat="42.11317" lon="8.69501">
        <ele>-4.68</ele>
        <time>2017-06-05T08:46:22Z</time>
      </trkpt>
      <trkpt lat="42.11324" lon="8.69547">
        <ele>-5.04</ele>
        <time>2017-06-05T08:46:38Z</time>
      </trkpt>
      <trkpt lat="42.1133" lon="8.69583">
        <ele>-5.01</ele>
        <time>2017-06-05T08:46:51Z</time>
      </trkpt>
      <trkpt lat="42.11339" lon="8.69618">
        <ele>-5.23</ele>
        <time>2017-06-05T08:47:03Z</time>
      </trkpt>
      <trkpt lat="42.1136" lon="8.69649">
        <ele>-5.25</ele>
        <time>2017-06-05T08:47:17Z</time>
      </trkpt>
      <trkpt lat="42.11386" lon="8.6968">
        <ele>-5.1</ele>
        <time>2017-06-05T08:47:34Z</time>
      </trkpt>
      <trkpt lat="42.11402" lon="8.69684">
        <ele>-5.19</ele>
        <time>2017-06-05T08:47:49Z</time>
      </trkpt>
      <trkpt lat="42.11403" lon="8.69684">
        <ele>-5.3</ele>
        <time>2017-06-05T08:48:05Z</time>
      </trkpt>
      <trkpt lat="42.1141" lon="8.69685">
        <ele>-5.01</ele>
        <time>2017-06-05T08:48:34Z</time>
      </trkpt>
      <trkpt lat="42.11412" lon="8.69685">
        <ele>-4.03</ele>
        <time>2017-06-05T08:48:50Z</time>
      </trkpt>
      <trkpt lat="42.11413" lon="8.69684">
        <ele>17.11</ele>
        <time>2017-06-05T08:49:12Z</time>
      </trkpt>
      <trkpt lat="42.11401" lon="8.69698">
        <ele>2.3</ele>
        <time>2017-06-05T08:49:41Z</time>
      </trkpt>
      <trkpt lat="42.11403" lon="8.69696">
        <ele>2.3</ele>
        <time>2017-06-05T08:49:42Z</time>
      </trkpt>
      <trkpt lat="42.1141" lon="8.69684">
        <ele>2.29</ele>
        <time>2017-06-05T08:50:07Z</time>
      </trkpt>
      <trkpt lat="42.11408" lon="8.69688">
        <ele>1.73</ele>
        <time>2017-06-05T08:50:35Z</time>
      </trkpt>
      <trkpt lat="42.11406" lon="8.6969">
        <ele>1.93</ele>
        <time>2017-06-05T08:50:46Z</time>
      </trkpt>
    </trkseg>
  </trk>
</gpx>